createdAt,value
2019-04-10T00:00:44.359Z,99.90
2019-04-10T00:03:25.814Z,99.90
2019-04-10T00:05:46.173Z,99.90
2019-04-10T00:08:15.699Z,99.90
2019-04-10T00:10:45.826Z,99.90
2019-04-10T00:13:15.549Z,99.90
2019-04-10T00:15:45.218Z,99.90
2019-04-10T00:18:15.821Z,99.90
2019-04-10T00:20:46.885Z,99.90
2019-04-10T00:23:17.347Z,99.90
2019-04-10T00:25:47.015Z,99.90
2019-04-10T00:28:17.040Z,99.90
2019-04-10T00:30:46.851Z,99.90
2019-04-10T00:33:16.647Z,99.90
2019-04-10T00:35:46.274Z,99.90
2019-04-10T00:38:15.810Z,99.90
2019-04-10T00:40:45.814Z,99.90
2019-04-10T00:43:15.680Z,99.90
2019-04-10T00:45:45.985Z,99.90
2019-04-10T00:48:15.591Z,99.90
2019-04-10T00:50:45.184Z,99.90
2019-04-10T00:53:14.821Z,99.90
2019-04-10T00:55:44.511Z,99.90
2019-04-10T00:58:14.204Z,99.90
2019-04-10T01:00:44.047Z,99.90
2019-04-10T01:03:15.931Z,99.90
2019-04-10T01:05:45.531Z,99.90
2019-04-10T01:08:16.094Z,99.90
2019-04-10T01:10:46.287Z,99.90
2019-04-10T01:13:16.737Z,99.90
2019-04-10T01:15:46.873Z,99.90
2019-04-10T01:18:17.168Z,99.90
2019-04-10T01:20:46.767Z,99.90
2019-04-10T01:23:16.298Z,99.90
2019-04-10T01:25:46.447Z,99.90
2019-04-10T01:28:16.568Z,99.90
2019-04-10T01:30:46.614Z,99.90
2019-04-10T01:33:16.561Z,99.90
2019-04-10T01:35:46.692Z,99.90
2019-04-10T01:38:17.515Z,99.90
2019-04-10T01:40:47.615Z,99.90
2019-04-10T01:43:19.871Z,99.90
2019-04-10T01:45:49.522Z,99.90
2019-04-10T01:48:19.564Z,99.90
2019-04-10T01:50:49.183Z,99.90
2019-04-10T01:53:19.637Z,99.90
2019-04-10T01:55:49.436Z,99.90
2019-04-10T01:58:21.106Z,99.90
2019-04-10T02:01:10.162Z,99.90
2019-04-10T02:03:40.368Z,99.90
2019-04-10T02:06:11.168Z,99.90
2019-04-10T02:08:42.292Z,99.90
2019-04-10T02:11:11.920Z,99.90
2019-04-10T02:13:41.452Z,99.90
2019-04-10T02:16:10.972Z,99.90
2019-04-10T02:18:41.565Z,99.90
2019-04-10T02:21:11.595Z,99.90
2019-04-10T02:23:41.140Z,99.90
2019-04-10T02:26:11.563Z,99.90
2019-04-10T02:28:41.267Z,99.90
2019-04-10T02:31:12.363Z,99.90
2019-04-10T02:34:01.789Z,99.90
2019-04-10T02:36:31.747Z,99.90
2019-04-10T02:39:13.803Z,99.90
2019-04-10T02:41:34.562Z,99.90
2019-04-10T02:44:05.012Z,99.90
2019-04-10T02:46:34.740Z,99.90
2019-04-10T02:49:05.997Z,99.90
2019-04-10T02:51:35.870Z,99.90
2019-04-10T02:54:05.696Z,99.90
2019-04-10T02:56:36.635Z,99.90
2019-04-10T02:59:07.353Z,99.90
2019-04-10T03:01:38.029Z,99.90
2019-04-10T03:04:09.305Z,99.90
2019-04-10T03:06:39.513Z,99.90
2019-04-10T03:09:26.085Z,99.90
2019-04-10T03:11:41.969Z,99.90
2019-04-10T03:14:12.672Z,99.90
2019-04-10T03:16:43.699Z,99.90
2019-04-10T03:19:13.690Z,99.90
2019-04-10T03:21:43.315Z,99.90
2019-04-10T03:24:13.906Z,99.90
2019-04-10T03:26:43.826Z,99.90
2019-04-10T03:29:13.787Z,99.90
2019-04-10T03:31:45.096Z,99.90
2019-04-10T03:34:30.376Z,99.90
2019-04-10T03:36:58.091Z,99.90
2019-04-10T03:39:27.847Z,99.90
2019-04-10T03:41:58.756Z,99.90
2019-04-10T03:44:28.387Z,99.90
2019-04-10T03:46:58.681Z,99.90
2019-04-10T03:49:28.328Z,99.90
2019-04-10T03:51:57.852Z,99.90
2019-04-10T03:54:28.037Z,99.90
2019-04-10T03:56:58.276Z,99.90
2019-04-10T03:59:28.524Z,99.90
2019-04-10T04:01:59.621Z,99.90
2019-04-10T04:04:29.270Z,99.90
2019-04-10T04:06:59.832Z,99.90
2019-04-10T04:09:29.446Z,99.90
2019-04-10T04:11:59.038Z,99.90
2019-04-10T04:14:29.138Z,99.90
2019-04-10T04:16:59.769Z,99.90
2019-04-10T04:19:30.952Z,99.90
2019-04-10T04:22:00.779Z,99.90
2019-04-10T04:24:30.223Z,99.90
2019-04-10T04:27:00.548Z,99.90
2019-04-10T04:29:30.384Z,99.90
2019-04-10T04:32:01.131Z,99.90
2019-04-10T04:34:31.303Z,99.90
2019-04-10T04:37:00.909Z,99.90
2019-04-10T04:39:31.430Z,99.90
2019-04-10T04:42:01.132Z,99.90
2019-04-10T04:44:31.113Z,99.90
2019-04-10T04:47:01.347Z,99.90
2019-04-10T04:49:31.101Z,99.90
2019-04-10T04:52:00.683Z,99.90
2019-04-10T04:54:31.004Z,99.90
2019-04-10T04:57:00.904Z,99.90
2019-04-10T04:59:30.392Z,99.90
2019-04-10T05:02:00.071Z,99.90
2019-04-10T05:04:32.201Z,99.90
2019-04-10T05:07:00.972Z,99.90
2019-04-10T05:09:35.707Z,99.90
2019-04-10T05:12:02.852Z,99.90
2019-04-10T05:14:32.587Z,99.90
2019-04-10T05:17:02.388Z,99.90
2019-04-10T05:19:32.084Z,99.90
2019-04-10T05:22:01.698Z,99.90
2019-04-10T05:24:32.006Z,99.90
2019-04-10T05:27:01.923Z,99.90
2019-04-10T05:29:31.636Z,99.90
2019-04-10T05:32:01.352Z,99.90
2019-04-10T05:34:31.051Z,99.90
2019-04-10T05:37:00.575Z,99.90
2019-04-10T05:39:39.694Z,99.90
2019-04-10T05:42:02.376Z,99.90
2019-04-10T05:44:32.532Z,99.90
2019-04-10T05:47:03.276Z,99.90
2019-04-10T05:49:33.363Z,99.90
2019-04-10T05:52:04.122Z,99.90
2019-04-10T05:54:33.846Z,99.90
2019-04-10T05:57:04.120Z,99.90
2019-04-10T05:59:34.311Z,99.90
2019-04-10T06:02:05.312Z,99.90
2019-04-10T06:04:35.692Z,99.90
2019-04-10T06:07:05.640Z,99.90
2019-04-10T06:09:35.280Z,99.90
2019-04-10T06:12:05.773Z,99.90
2019-04-10T06:14:36.144Z,99.90
2019-04-10T06:17:06.019Z,99.90
2019-04-10T06:19:36.438Z,99.90
2019-04-10T06:22:08.046Z,99.90
2019-04-10T06:24:38.491Z,99.90
2019-04-10T06:27:08.295Z,99.90
2019-04-10T06:29:39.206Z,99.90
2019-04-10T06:32:09.479Z,99.90
2019-04-10T06:34:39.792Z,99.90
2019-04-10T06:37:10.332Z,99.80
2019-04-10T06:39:42.849Z,96.00
2019-04-10T06:42:12.087Z,93.50
2019-04-10T06:44:42.066Z,90.10
2019-04-10T06:47:11.980Z,78.10
2019-04-10T06:49:41.574Z,70.90
2019-04-10T06:52:11.307Z,63.80
2019-04-10T06:54:41.143Z,58.60
2019-04-10T06:57:10.671Z,56.60
2019-04-10T06:59:40.287Z,57.00
2019-04-10T07:02:21.714Z,57.20
2019-04-10T07:04:45.989Z,57.70
2019-04-10T07:07:15.559Z,59.70
2019-04-10T07:09:44.120Z,59.10
2019-04-10T07:12:14.379Z,58.20
2019-04-10T07:14:48.288Z,57.10
2019-04-10T07:17:15.998Z,57.20
2019-04-10T07:19:46.068Z,54.80
2019-04-10T07:22:17.367Z,53.70
2019-04-10T07:24:48.114Z,53.80
2019-04-10T07:27:17.828Z,53.20
2019-04-10T07:29:50.847Z,52.90
2019-04-10T07:32:19.446Z,54.10
2019-04-10T07:34:49.302Z,56.60
2019-04-10T07:37:21.688Z,60.80
2019-04-10T07:39:50.960Z,66.90
2019-04-10T07:42:29.392Z,71.60
2019-04-10T07:44:52.030Z,74.80
2019-04-10T07:47:22.103Z,79.00
2019-04-10T07:49:52.537Z,83.10
2019-04-10T07:52:22.934Z,88.70
2019-04-10T07:54:54.573Z,91.20
2019-04-10T07:57:24.518Z,93.90
2019-04-10T07:59:54.624Z,95.30
2019-04-10T08:02:24.193Z,96.90
2019-04-10T08:04:53.958Z,98.30
2019-04-10T08:07:29.459Z,99.70
2019-04-10T08:09:54.747Z,99.90
2019-04-10T08:12:32.413Z,99.90
2019-04-10T08:14:56.170Z,99.90
2019-04-10T08:17:25.740Z,99.90
2019-04-10T08:19:55.256Z,99.90
2019-04-10T08:22:24.736Z,99.90
2019-04-10T08:24:54.252Z,99.90
2019-04-10T08:27:23.798Z,99.90
2019-04-10T08:29:53.339Z,99.90
2019-04-10T08:32:23.655Z,99.90
2019-04-10T08:34:53.593Z,99.90
2019-04-10T08:37:24.164Z,99.90
2019-04-10T08:39:54.764Z,99.90
2019-04-10T08:42:24.510Z,99.90
2019-04-10T08:44:54.247Z,99.90
2019-04-10T08:47:24.887Z,99.90
2019-04-10T08:49:54.962Z,99.90
2019-04-10T08:52:24.688Z,99.90
2019-04-10T08:54:54.343Z,99.90
2019-04-10T08:57:24.312Z,99.90
2019-04-10T08:59:54.156Z,99.90
2019-04-10T09:02:24.108Z,99.90
2019-04-10T09:04:53.928Z,99.90
2019-04-10T09:07:24.256Z,99.90
2019-04-10T09:09:54.177Z,99.90
2019-04-10T09:12:24.011Z,99.90
2019-04-10T09:14:53.891Z,99.90
2019-04-10T09:17:23.600Z,99.90
2019-04-10T09:19:54.066Z,99.90
2019-04-10T09:22:24.627Z,99.90
2019-04-10T09:24:54.923Z,99.90
2019-04-10T09:27:24.775Z,99.90
2019-04-10T09:29:54.569Z,99.90
2019-04-10T09:32:24.440Z,99.90
2019-04-10T09:34:54.101Z,99.90
2019-04-10T09:37:24.163Z,99.90
2019-04-10T09:39:56.162Z,99.90
2019-04-10T09:42:25.849Z,99.90
2019-04-10T09:44:55.372Z,99.90
2019-04-10T09:47:25.003Z,99.90
2019-04-10T09:49:55.486Z,99.90
2019-04-10T09:52:25.815Z,99.90
2019-04-10T09:54:57.510Z,99.90
2019-04-10T09:57:27.003Z,99.90
2019-04-10T09:59:56.816Z,99.90
2019-04-10T10:02:27.458Z,98.90
2019-04-10T10:04:57.829Z,98.90
2019-04-10T10:07:28.454Z,99.00
2019-04-10T10:10:00.764Z,98.90
2019-04-10T10:12:29.767Z,98.70
2019-04-10T10:15:00.185Z,98.70
2019-04-10T10:17:30.818Z,97.80
2019-04-10T10:20:01.693Z,97.70
2019-04-10T10:22:31.996Z,97.90
2019-04-10T10:25:02.805Z,98.00
2019-04-10T10:27:32.571Z,98.00
2019-04-10T10:30:02.238Z,97.70
2019-04-10T10:32:32.776Z,97.00
2019-04-10T10:35:03.192Z,96.60
2019-04-10T10:37:32.711Z,96.30
2019-04-10T10:40:03.385Z,96.40
2019-04-10T10:42:34.125Z,95.40
2019-04-10T10:45:07.171Z,94.90
2019-04-10T10:47:38.015Z,94.30
2019-04-10T10:50:08.736Z,93.90
2019-04-10T10:52:39.646Z,93.70
2019-04-10T10:55:09.916Z,93.70
2019-04-10T10:57:39.690Z,93.30
2019-04-10T11:00:12.805Z,93.10
2019-04-10T11:02:41.695Z,92.40
2019-04-10T11:05:12.699Z,91.50
2019-04-10T11:07:42.915Z,91.00
2019-04-10T11:10:14.754Z,90.50
2019-04-10T11:12:44.379Z,88.80
2019-04-10T11:15:13.976Z,87.40
2019-04-10T11:17:44.705Z,83.30
2019-04-10T11:20:15.227Z,80.80
2019-04-10T11:22:45.069Z,81.90
2019-04-10T11:25:15.699Z,82.50
2019-04-10T11:27:45.375Z,83.10
2019-04-10T11:30:16.001Z,84.50
2019-04-10T11:32:46.291Z,84.10
2019-04-10T11:35:17.429Z,83.60
2019-04-10T11:37:51.067Z,84.80
2019-04-10T11:40:19.272Z,85.00
2019-04-10T11:42:48.935Z,83.70
2019-04-10T11:45:19.187Z,82.40
2019-04-10T11:47:51.245Z,81.40
2019-04-10T11:50:21.622Z,82.10
2019-04-10T11:52:53.342Z,81.70
2019-04-10T11:55:27.026Z,76.00
2019-04-10T11:57:54.587Z,75.60
2019-04-10T12:00:47.756Z,73.20
2019-04-10T12:03:12.829Z,73.60
2019-04-10T12:05:48.378Z,69.50
2019-04-10T12:08:41.699Z,68.10
2019-04-10T12:13:20.683Z,70.70
2019-04-10T12:15:52.509Z,71.70
2019-04-10T12:18:22.554Z,73.30
2019-04-10T12:20:53.519Z,73.10
2019-04-10T12:23:23.258Z,71.30
2019-04-10T12:25:53.566Z,71.30
2019-04-10T12:28:23.552Z,71.80
2019-04-10T12:30:53.605Z,71.90
2019-04-10T12:33:23.397Z,73.00
2019-04-10T12:35:54.096Z,72.90
2019-04-10T12:38:24.103Z,72.60
2019-04-10T12:40:53.635Z,73.10
2019-04-10T12:43:23.334Z,72.10
2019-04-10T12:45:53.091Z,72.30
2019-04-10T12:48:23.081Z,72.30
2019-04-10T12:50:53.072Z,72.50
2019-04-10T12:53:23.327Z,72.50
2019-04-10T12:55:53.595Z,72.10
2019-04-10T12:58:23.559Z,71.40
2019-04-10T13:00:53.291Z,70.80
2019-04-10T13:03:23.329Z,70.50
2019-04-10T13:05:53.673Z,69.80
2019-04-10T13:08:31.135Z,69.20
2019-04-10T13:10:55.996Z,69.30
2019-04-10T13:13:27.046Z,68.30
2019-04-10T13:15:57.236Z,67.40
2019-04-10T13:18:26.704Z,66.50
2019-04-10T13:20:56.159Z,66.60
2019-04-10T13:23:25.785Z,67.80
2019-04-10T13:26:00.974Z,68.70
2019-04-10T13:28:27.591Z,69.70
2019-04-10T13:30:58.445Z,70.30
2019-04-10T13:33:28.912Z,70.10
2019-04-10T13:35:59.575Z,67.90
2019-04-10T13:38:33.653Z,66.40
2019-04-10T13:41:00.272Z,66.60
2019-04-10T13:43:29.779Z,67.40
2019-04-10T13:46:00.435Z,65.50
2019-04-10T13:48:31.245Z,66.20
2019-04-10T13:51:01.303Z,65.00
2019-04-10T13:53:32.133Z,64.40
2019-04-10T13:56:01.952Z,65.70
2019-04-10T13:58:31.584Z,66.10
2019-04-10T14:01:01.433Z,66.00
2019-04-10T14:03:31.255Z,65.80
2019-04-10T14:06:01.171Z,66.40
2019-04-10T14:08:47.146Z,66.70
2019-04-10T14:11:02.661Z,65.20
2019-04-10T14:13:32.625Z,64.10
2019-04-10T14:16:02.744Z,63.90
2019-04-10T14:18:32.944Z,63.30
2019-04-10T14:21:07.535Z,63.40
2019-04-10T14:23:35.315Z,63.40
2019-04-10T14:26:22.494Z,62.80
2019-04-10T14:28:53.441Z,62.80
2019-04-10T14:31:28.773Z,62.50
2019-04-10T14:33:58.596Z,62.00
2019-04-10T14:36:28.301Z,62.20
2019-04-10T14:39:08.271Z,61.40
2019-04-10T14:41:29.582Z,60.90
2019-04-10T14:43:59.507Z,60.60
2019-04-10T14:46:28.959Z,60.60
2019-04-10T14:48:58.606Z,60.70
2019-04-10T14:51:28.347Z,60.40
2019-04-10T14:53:58.007Z,59.70
2019-04-10T14:56:28.360Z,59.40
2019-04-10T14:58:58.071Z,59.10
2019-04-10T15:01:28.228Z,58.20
2019-04-10T15:03:58.082Z,58.10
2019-04-10T15:06:27.531Z,58.10
2019-04-10T15:08:57.756Z,58.20
2019-04-10T15:11:28.799Z,58.50
2019-04-10T15:13:59.172Z,59.00
2019-04-10T15:16:30.080Z,59.20
2019-04-10T15:19:00.361Z,59.50
2019-04-10T15:21:31.129Z,58.60
2019-04-10T15:24:01.404Z,58.80
2019-04-10T15:26:32.244Z,59.20
2019-04-10T15:29:02.418Z,58.80
2019-04-10T15:31:33.281Z,58.60
2019-04-10T15:34:03.651Z,58.30
2019-04-10T15:36:33.953Z,58.90
2019-04-10T15:39:06.530Z,58.70
2019-04-10T15:41:36.500Z,58.80
2019-04-10T15:44:06.140Z,58.10
2019-04-10T15:46:35.772Z,58.30
2019-04-10T15:49:06.955Z,57.90
2019-04-10T15:51:36.727Z,58.10
2019-04-10T15:54:07.497Z,58.60
2019-04-10T15:56:38.127Z,58.80
2019-04-10T15:59:08.138Z,57.80
2019-04-10T16:01:37.759Z,57.60
2019-04-10T16:04:08.255Z,57.20
2019-04-10T16:06:39.660Z,57.10
2019-04-10T16:09:09.719Z,56.30
2019-04-10T16:11:58.489Z,55.30
2019-04-10T16:14:30.198Z,54.60
2019-04-10T16:17:17.448Z,54.20
2019-04-10T16:20:05.147Z,55.60
2019-04-10T16:22:36.501Z,55.80
2019-04-10T16:25:09.568Z,56.00
2019-04-10T16:27:39.394Z,56.20
2019-04-10T16:30:12.286Z,56.20
2019-04-10T16:32:42.134Z,56.20
2019-04-10T16:35:13.559Z,56.10
2019-04-10T16:37:43.987Z,56.30
2019-04-10T16:40:14.987Z,56.10
2019-04-10T16:42:44.800Z,56.30
2019-04-10T16:45:15.795Z,56.50
2019-04-10T16:47:46.272Z,56.70
2019-04-10T16:50:15.975Z,57.10
2019-04-10T16:52:45.528Z,57.20
2019-04-10T16:55:15.658Z,57.70
2019-04-10T16:57:45.467Z,57.80
2019-04-10T17:00:17.101Z,57.50
2019-04-10T17:02:47.204Z,58.00
2019-04-10T17:05:16.728Z,58.50
2019-04-10T17:07:47.476Z,59.00
2019-04-10T17:10:23.024Z,59.20
2019-04-10T17:12:50.355Z,60.10
2019-04-10T17:15:20.080Z,59.90
2019-04-10T17:17:50.605Z,59.60
2019-04-10T17:20:20.880Z,59.40
2019-04-10T17:22:51.965Z,59.40
2019-04-10T17:25:22.191Z,59.50
2019-04-10T17:27:52.077Z,58.60
2019-04-10T17:30:21.958Z,58.90
2019-04-10T17:32:52.172Z,59.00
2019-04-10T17:35:23.245Z,59.40
2019-04-10T17:37:53.997Z,59.80
2019-04-10T17:40:31.890Z,60.50
2019-04-10T17:42:54.962Z,60.80
2019-04-10T17:45:25.802Z,61.00
2019-04-10T17:47:56.555Z,61.40
2019-04-10T17:50:28.003Z,61.50
2019-04-10T17:52:58.888Z,62.00
2019-04-10T17:55:28.474Z,62.40
2019-04-10T17:57:58.398Z,62.30
2019-04-10T18:00:33.148Z,62.60
2019-04-10T18:03:03.439Z,63.00
2019-04-10T18:05:33.183Z,64.30
2019-04-10T18:08:02.929Z,64.10
2019-04-10T18:10:43.560Z,64.20
2019-04-10T18:13:05.117Z,64.70
2019-04-10T18:15:35.833Z,65.30
2019-04-10T18:18:05.570Z,65.90
2019-04-10T18:20:35.957Z,66.50
2019-04-10T18:23:05.687Z,67.10
2019-04-10T18:25:36.146Z,67.80
2019-04-10T18:28:07.518Z,68.40
2019-04-10T18:30:38.510Z,69.00
2019-04-10T18:33:08.511Z,69.70
2019-04-10T18:35:38.657Z,70.30
2019-04-10T18:38:09.014Z,70.80
2019-04-10T18:40:39.266Z,71.40
2019-04-10T18:43:09.796Z,71.90
2019-04-10T18:45:42.031Z,72.30
2019-04-10T18:48:11.347Z,73.10
2019-04-10T18:50:41.071Z,73.70
2019-04-10T18:53:10.982Z,74.20
2019-04-10T18:55:40.843Z,75.00
2019-04-10T18:58:12.012Z,75.20
2019-04-10T19:00:43.372Z,75.90
2019-04-10T19:03:15.104Z,76.30
2019-04-10T19:05:52.122Z,76.90
2019-04-10T19:08:21.966Z,77.60
2019-04-10T19:10:51.740Z,78.20
2019-04-10T19:13:23.017Z,78.50
2019-04-10T19:15:53.089Z,78.60
2019-04-10T19:18:23.729Z,79.20
2019-04-10T19:20:53.675Z,79.80
2019-04-10T19:23:23.907Z,80.20
2019-04-10T19:25:54.695Z,80.40
2019-04-10T19:28:30.123Z,80.80
2019-04-10T19:31:12.966Z,81.10
2019-04-10T19:33:39.333Z,81.40
2019-04-10T19:36:09.838Z,81.90
2019-04-10T19:38:39.614Z,82.10
2019-04-10T19:41:23.490Z,82.60
2019-04-10T19:43:40.668Z,83.10
2019-04-10T19:46:10.632Z,83.60
2019-04-10T19:48:41.536Z,84.20
2019-04-10T19:51:12.098Z,84.50
2019-04-10T19:53:42.041Z,84.90
2019-04-10T19:56:12.617Z,85.50
2019-04-10T19:58:42.475Z,86.10
2019-04-10T20:01:12.732Z,86.50
2019-04-10T20:03:43.852Z,87.00
2019-04-10T20:06:14.210Z,87.20
2019-04-10T20:08:44.234Z,87.70
2019-04-10T20:11:14.777Z,88.20
2019-04-10T20:13:45.002Z,88.40
2019-04-10T20:16:15.300Z,89.40
2019-04-10T20:18:45.244Z,89.50
2019-04-10T20:21:15.497Z,90.00
2019-04-10T20:23:45.977Z,90.00
2019-04-10T20:26:15.827Z,90.10
2019-04-10T20:28:45.375Z,90.20
2019-04-10T20:31:17.233Z,90.30
2019-04-10T20:33:47.244Z,90.30
2019-04-10T20:36:17.251Z,90.50
2019-04-10T20:38:48.340Z,90.50
2019-04-10T20:41:18.251Z,90.80
2019-04-10T20:43:47.941Z,90.90
2019-04-10T20:46:18.099Z,91.20
2019-04-10T20:48:48.821Z,91.30
2019-04-10T20:51:18.915Z,91.60
2019-04-10T20:53:48.887Z,91.90
2019-04-10T20:56:19.799Z,92.10
2019-04-10T20:58:50.532Z,92.40
2019-04-10T21:01:20.480Z,92.60
2019-04-10T21:03:50.268Z,92.90
2019-04-10T21:06:19.700Z,93.10
2019-04-10T21:08:50.345Z,93.50
2019-04-10T21:11:20.401Z,93.80
2019-04-10T21:13:50.965Z,94.00
2019-04-10T21:16:20.591Z,94.20
2019-04-10T21:18:50.135Z,94.50
2019-04-10T21:21:19.676Z,95.20
2019-04-10T21:23:49.199Z,95.00
2019-04-10T21:26:19.788Z,95.20
2019-04-10T21:28:49.482Z,95.50
2019-04-10T21:31:37.040Z,95.50
2019-04-10T21:34:26.544Z,95.60
2019-04-10T21:36:57.510Z,95.70
2019-04-10T21:39:27.779Z,96.00
2019-04-10T21:42:10.264Z,96.40
2019-04-10T21:44:29.050Z,96.60
2019-04-10T21:46:59.304Z,96.90
2019-04-10T21:49:30.247Z,96.90
2019-04-10T21:52:00.132Z,97.30
2019-04-10T21:54:29.607Z,97.50
2019-04-10T21:56:59.814Z,97.70
2019-04-10T21:59:29.519Z,98.20
2019-04-10T22:01:59.380Z,98.40
2019-04-10T22:04:28.979Z,98.50
2019-04-10T22:07:03.437Z,98.60
2019-04-10T22:09:50.810Z,98.80
2019-04-10T22:12:30.729Z,99.30
2019-04-10T22:14:53.358Z,99.50
2019-04-10T22:17:22.896Z,99.80
2019-04-10T22:19:52.853Z,99.90
2019-04-10T22:22:22.632Z,99.90
2019-04-10T22:24:52.280Z,99.90
2019-04-10T22:27:21.807Z,99.90
2019-04-10T22:29:52.157Z,99.90
2019-04-10T22:32:22.690Z,99.90
2019-04-10T22:34:52.768Z,99.90
2019-04-10T22:37:23.576Z,99.90
2019-04-10T22:39:54.528Z,99.90
2019-04-10T22:42:35.676Z,99.90
2019-04-10T22:44:56.136Z,99.90
2019-04-10T22:47:25.718Z,99.90
2019-04-10T22:49:55.683Z,99.90
2019-04-10T22:52:26.174Z,99.90
2019-04-10T22:54:55.775Z,99.90
2019-04-10T22:57:25.303Z,99.90
2019-04-10T22:59:55.334Z,99.90
2019-04-10T23:02:25.572Z,99.90
2019-04-10T23:04:55.665Z,99.90
2019-04-10T23:07:26.075Z,99.90
2019-04-10T23:09:56.859Z,99.90
2019-04-10T23:12:26.668Z,99.90
2019-04-10T23:14:59.387Z,99.90
2019-04-10T23:17:28.920Z,99.90
2019-04-10T23:19:58.604Z,99.90
2019-04-10T23:22:29.367Z,99.90
2019-04-10T23:25:00.059Z,99.90
2019-04-10T23:27:30.481Z,99.90
2019-04-10T23:30:00.314Z,99.90
2019-04-10T23:32:31.078Z,99.90
2019-04-10T23:35:01.412Z,99.90
2019-04-10T23:37:31.054Z,99.90
2019-04-10T23:40:00.823Z,99.90
2019-04-10T23:42:30.587Z,99.90
2019-04-10T23:45:01.596Z,99.90
2019-04-10T23:47:31.852Z,99.90
2019-04-10T23:50:01.939Z,99.90
2019-04-10T23:52:31.865Z,99.90
2019-04-10T23:55:01.829Z,99.90
2019-04-10T23:57:31.699Z,99.90
